Palito Blanco, Texas
Current Conditions -  °F | °C
As of 1:53 AM on Friday 28 Nov 2014 (Local Time) from KALI Reporting Station
Clear Clear  
Wind Chill: 51°   Ceiling: Unl
Heat Index: 51°   Visibility: 10mi
Dew Point: 49°   Wind: 3mph
Humidity: 92%   Direction: 330°NNW
Pressure: 30.34"   Gusts: NA
Location:  27.6821°N, 98.1034°W
Report Text: KALI 280753Z AUTO 33003KT 10SM CLR 11/09 A3034 RMK AO2 SLP272 T01060094 $
Loading
Personal Weather Stations






























Interactive Weather Map New forecast layout! Learn more

10-Day Weather Forecast

Advertisements
Track Severe Weather on mobile